createdAt,value
2022-10-29T00:01:08.168Z,5.40
2022-10-29T00:03:47.281Z,5.70
2022-10-29T00:06:29.599Z,5.60
2022-10-29T00:09:08.744Z,5.47
2022-10-29T00:11:48.666Z,5.60
2022-10-29T00:14:17.281Z,5.60
2022-10-29T00:16:45.139Z,5.70
2022-10-29T00:19:12.731Z,5.13
2022-10-29T00:21:41.743Z,5.23
2022-10-29T00:24:10.460Z,5.30
2022-10-29T00:26:38.320Z,5.67
2022-10-29T00:29:06.093Z,6.17
2022-10-29T00:31:33.742Z,4.77
2022-10-29T00:34:01.946Z,5.60
2022-10-29T00:36:30.801Z,5.93
2022-10-29T00:38:59.988Z,5.73
2022-10-29T00:41:29.602Z,5.90
2022-10-29T00:44:26.364Z,5.30
2022-10-29T00:46:57.343Z,5.77
2022-10-29T00:49:25.468Z,5.43
2022-10-29T00:51:54.512Z,5.83
2022-10-29T00:54:23.649Z,6.00
2022-10-29T00:56:53.906Z,5.90
2022-10-29T00:59:21.534Z,5.77
2022-10-29T01:01:50.096Z,5.70
2022-10-29T01:04:18.039Z,6.87
2022-10-29T01:06:47.212Z,7.23
2022-10-29T01:09:15.184Z,6.60
2022-10-29T01:11:53.134Z,6.17
2022-10-29T01:14:27.144Z,6.27
2022-10-29T01:16:59.153Z,6.27
2022-10-29T01:19:47.471Z,5.60
2022-10-29T01:22:17.900Z,6.00
2022-10-29T01:25:27.658Z,5.77
2022-10-29T01:28:02.567Z,6.80
2022-10-29T01:31:15.780Z,5.57
2022-10-29T01:33:48.295Z,5.93
2022-10-29T01:36:20.172Z,5.70
2022-10-29T01:38:53.770Z,6.33
2022-10-29T01:41:26.481Z,6.20
2022-10-29T01:43:56.798Z,6.23
2022-10-29T01:46:30.144Z,6.23
2022-10-29T01:48:59.362Z,5.17
2022-10-29T01:51:29.601Z,6.70
2022-10-29T01:53:58.113Z,5.27
2022-10-29T01:56:25.833Z,5.40
2022-10-29T01:58:56.436Z,5.53
2022-10-29T02:01:39.542Z,5.90
2022-10-29T02:04:18.749Z,5.90
2022-10-29T02:06:53.276Z,6.10
2022-10-29T02:09:25.049Z,5.90
2022-10-29T02:11:55.560Z,6.27
2022-10-29T02:14:27.000Z,5.87
2022-10-29T02:16:56.548Z,5.93
2022-10-29T02:19:24.185Z,5.57
2022-10-29T02:21:52.130Z,6.93
2022-10-29T02:24:19.691Z,5.37
2022-10-29T02:26:47.236Z,5.60
2022-10-29T02:29:14.808Z,6.67
2022-10-29T02:31:42.393Z,6.07
2022-10-29T02:34:11.258Z,6.70
2022-10-29T02:36:38.822Z,6.00
2022-10-29T02:39:06.363Z,5.90
2022-10-29T02:41:33.952Z,5.93
2022-10-29T02:44:01.508Z,5.90
2022-10-29T02:46:30.183Z,5.93
2022-10-29T02:48:57.734Z,6.37
2022-10-29T02:51:26.645Z,6.57
2022-10-29T02:53:54.261Z,6.00
2022-10-29T02:56:21.808Z,6.27
2022-10-29T02:58:49.412Z,6.90
2022-10-29T03:01:17.023Z,6.53
2022-10-29T03:03:44.627Z,6.80
2022-10-29T03:06:15.372Z,7.70
2022-10-29T03:08:44.588Z,6.10
2022-10-29T03:11:12.871Z,5.57
2022-10-29T03:13:40.604Z,6.00
2022-10-29T03:16:08.157Z,7.10
2022-10-29T03:18:35.800Z,7.17
2022-10-29T03:21:03.368Z,6.77
2022-10-29T03:23:31.003Z,6.60
2022-10-29T03:25:59.884Z,6.70
2022-10-29T03:28:30.121Z,5.80
2022-10-29T03:30:58.054Z,6.80
2022-10-29T03:33:26.591Z,7.30
2022-10-29T03:35:58.503Z,6.13
2022-10-29T03:38:26.197Z,6.20
2022-10-29T03:40:53.798Z,6.83
2022-10-29T03:43:22.876Z,7.53
2022-10-29T03:45:53.217Z,6.60
2022-10-29T03:48:20.752Z,7.17
2022-10-29T03:50:55.277Z,6.67
2022-10-29T03:53:23.079Z,6.53
2022-10-29T03:55:51.330Z,6.63
2022-10-29T03:58:18.909Z,6.37
2022-10-29T04:00:54.450Z,6.40
2022-10-29T04:03:22.007Z,6.53
2022-10-29T04:05:49.530Z,6.50
2022-10-29T04:08:17.718Z,6.10
2022-10-29T04:10:46.475Z,6.70
2022-10-29T04:13:14.112Z,6.33
2022-10-29T04:15:41.727Z,6.80
2022-10-29T04:18:11.131Z,6.90
2022-10-29T04:20:59.755Z,6.37
2022-10-29T04:29:02.486Z,6.40
2022-10-29T04:31:30.054Z,7.33
2022-10-29T04:33:58.989Z,7.00
2022-10-29T04:36:26.559Z,7.20
2022-10-29T04:38:54.101Z,7.07
2022-10-29T04:41:21.677Z,7.53
2022-10-29T04:43:49.179Z,7.40
2022-10-29T04:46:16.740Z,6.77
2022-10-29T04:48:44.369Z,6.90
2022-10-29T04:51:20.002Z,6.73
2022-10-29T04:53:47.529Z,7.07
2022-10-29T04:56:15.109Z,7.77
2022-10-29T04:58:42.694Z,6.93
2022-10-29T05:01:10.482Z,6.73
2022-10-29T05:03:38.226Z,8.47
2022-10-29T05:06:06.621Z,7.20
2022-10-29T05:08:35.678Z,7.73
2022-10-29T05:11:04.242Z,7.63
2022-10-29T05:13:32.034Z,7.13
2022-10-29T05:15:59.819Z,8.70
2022-10-29T05:18:27.596Z,8.07
2022-10-29T05:20:55.665Z,7.83
2022-10-29T05:23:23.572Z,7.30
2022-10-29T05:25:52.730Z,7.50
2022-10-29T05:28:21.852Z,7.67
2022-10-29T05:30:50.407Z,6.57
2022-10-29T05:33:20.467Z,6.43
2022-10-29T05:35:48.537Z,8.20
2022-10-29T05:38:16.574Z,6.90
2022-10-29T05:40:45.122Z,6.23
2022-10-29T05:43:15.283Z,6.93
2022-10-29T05:45:43.078Z,6.50
2022-10-29T05:50:40.211Z,6.97
2022-10-29T05:53:08.936Z,6.90
2022-10-29T05:55:36.937Z,6.53
2022-10-29T05:58:05.957Z,7.20
2022-10-29T06:00:36.326Z,7.10
2022-10-29T06:03:04.036Z,7.30
2022-10-29T06:05:31.709Z,7.67
2022-10-29T06:08:01.068Z,7.13
2022-10-29T06:10:30.059Z,6.93
2022-10-29T06:12:57.628Z,7.20
2022-10-29T06:15:25.209Z,7.97
2022-10-29T06:17:54.575Z,7.37
2022-10-29T06:20:22.644Z,7.53
2022-10-29T06:22:57.910Z,7.10
2022-10-29T06:25:26.223Z,7.30
2022-10-29T06:28:01.594Z,7.60
2022-10-29T06:30:29.926Z,7.13
2022-10-29T06:32:59.085Z,8.30
2022-10-29T06:35:26.900Z,6.60
2022-10-29T06:37:54.991Z,7.83
2022-10-29T06:40:22.879Z,8.77
2022-10-29T06:42:50.518Z,7.60
2022-10-29T06:45:18.111Z,8.07
2022-10-29T06:47:46.586Z,7.77
2022-10-29T06:50:15.553Z,8.60
2022-10-29T06:52:43.907Z,7.83
2022-10-29T06:55:11.482Z,8.47
2022-10-29T06:57:41.581Z,8.10
2022-10-29T07:00:11.002Z,8.43
2022-10-29T07:02:38.675Z,8.77
2022-10-29T07:05:08.006Z,7.87
2022-10-29T07:07:36.913Z,7.37
2022-10-29T07:10:04.973Z,7.87
2022-10-29T07:12:32.525Z,7.40
2022-10-29T07:15:00.077Z,8.00
2022-10-29T07:17:27.633Z,7.73
2022-10-29T07:19:55.180Z,8.07
2022-10-29T07:22:22.738Z,8.40
2022-10-29T07:24:53.012Z,8.33
2022-10-29T07:27:23.113Z,7.83
2022-10-29T07:29:50.926Z,9.03
2022-10-29T07:32:18.724Z,9.20
2022-10-29T07:34:46.494Z,8.07
2022-10-29T07:37:14.166Z,8.87
2022-10-29T07:39:41.820Z,8.77
2022-10-29T07:42:10.945Z,8.23
2022-10-29T07:44:38.564Z,8.33
2022-10-29T07:47:08.393Z,8.63
2022-10-29T07:49:36.062Z,8.27
2022-10-29T07:52:03.789Z,8.47
2022-10-29T07:54:31.366Z,8.63
2022-10-29T07:56:59.113Z,7.73
2022-10-29T07:59:28.308Z,7.53
2022-10-29T08:01:55.963Z,8.20
2022-10-29T08:04:23.547Z,8.67
2022-10-29T08:06:51.122Z,6.80
2022-10-29T08:09:18.678Z,8.43
2022-10-29T08:14:22.580Z,7.60
2022-10-29T08:16:54.380Z,7.97
2022-10-29T08:19:22.134Z,9.17
2022-10-29T08:21:49.738Z,7.87
2022-10-29T08:24:17.638Z,7.93
2022-10-29T08:26:45.292Z,7.83
2022-10-29T08:29:12.968Z,8.23
2022-10-29T08:31:41.091Z,8.00
2022-10-29T08:34:11.409Z,7.57
2022-10-29T08:36:39.167Z,7.43
2022-10-29T08:39:06.777Z,7.87
2022-10-29T08:41:39.439Z,7.70
2022-10-29T08:44:33.819Z,7.43
2022-10-29T08:47:07.825Z,7.37
2022-10-29T08:49:42.593Z,8.03
2022-10-29T08:52:13.999Z,7.80
2022-10-29T08:54:43.099Z,7.73
2022-10-29T08:57:15.400Z,7.93
2022-10-29T08:59:45.958Z,8.60
2022-10-29T09:02:17.170Z,9.40
2022-10-29T09:04:46.429Z,8.87
2022-10-29T09:07:29.674Z,9.70
2022-10-29T09:10:00.018Z,8.97
2022-10-29T09:12:41.265Z,8.43
2022-10-29T09:15:30.331Z,8.30
2022-10-29T09:18:10.607Z,8.13
2022-10-29T09:20:47.935Z,8.73
2022-10-29T09:23:25.063Z,8.87
2022-10-29T09:25:55.105Z,8.00
2022-10-29T09:28:29.072Z,7.43
2022-10-29T09:31:03.672Z,7.87
2022-10-29T09:33:31.769Z,7.60
2022-10-29T09:36:01.104Z,8.17
2022-10-29T09:38:32.693Z,8.30
2022-10-29T09:41:02.186Z,8.63
2022-10-29T09:43:38.728Z,7.87
2022-10-29T09:46:14.342Z,8.53
2022-10-29T09:48:46.302Z,8.07
2022-10-29T09:51:23.246Z,8.10
2022-10-29T09:53:51.599Z,8.33
2022-10-29T09:56:19.406Z,7.47
2022-10-29T09:58:50.828Z,8.30
2022-10-29T10:01:19.887Z,8.07
2022-10-29T10:03:50.051Z,8.03
2022-10-29T10:06:18.956Z,7.67
2022-10-29T10:09:01.014Z,8.60
2022-10-29T10:11:35.150Z,8.20
2022-10-29T10:14:08.703Z,8.63
2022-10-29T10:16:37.724Z,8.20
2022-10-29T10:19:22.174Z,8.10
2022-10-29T10:21:59.194Z,7.33
2022-10-29T10:24:31.995Z,8.47
2022-10-29T10:26:59.836Z,8.33
2022-10-29T10:29:28.275Z,7.20
2022-10-29T10:32:13.243Z,7.50
2022-10-29T10:34:40.844Z,7.87
2022-10-29T10:37:22.416Z,7.53
2022-10-29T10:39:53.432Z,8.17
2022-10-29T10:42:24.044Z,8.40
2022-10-29T10:44:54.396Z,8.30
2022-10-29T10:47:24.325Z,7.57
2022-10-29T10:49:52.146Z,8.40
2022-10-29T10:52:24.925Z,7.57
2022-10-29T10:54:58.014Z,7.87
2022-10-29T10:57:28.273Z,7.63
2022-10-29T11:00:00.943Z,8.00
2022-10-29T11:02:35.673Z,8.40
2022-10-29T11:05:13.407Z,8.00
2022-10-29T11:07:47.081Z,8.33
2022-10-29T11:10:15.168Z,7.87
2022-10-29T11:12:45.709Z,7.93
2022-10-29T11:15:17.637Z,8.00
2022-10-29T11:17:52.987Z,7.77
2022-10-29T11:20:23.962Z,8.50
2022-10-29T11:23:03.243Z,7.97
2022-10-29T11:25:36.601Z,8.87
2022-10-29T11:28:10.818Z,7.83
2022-10-29T11:30:42.703Z,8.60
2022-10-29T11:33:17.490Z,9.90
2022-10-29T11:35:47.357Z,9.17
2022-10-29T11:38:19.855Z,7.93
2022-10-29T11:40:52.365Z,7.10
2022-10-29T11:43:21.927Z,7.10
2022-10-29T11:46:03.312Z,7.10
2022-10-29T11:48:47.450Z,6.27
2022-10-29T11:51:25.623Z,7.90
2022-10-29T11:54:01.513Z,6.83
2022-10-29T11:56:47.683Z,7.20
2022-10-29T11:59:23.421Z,7.27
2022-10-29T12:01:55.923Z,7.53
2022-10-29T12:04:28.383Z,7.10
2022-10-29T12:07:03.632Z,6.27
2022-10-29T12:10:08.337Z,7.17
2022-10-29T12:12:41.513Z,7.00
2022-10-29T12:15:16.815Z,6.70
2022-10-29T12:17:49.925Z,6.60
2022-10-29T12:20:24.999Z,6.83
2022-10-29T12:23:02.524Z,6.90
2022-10-29T12:25:40.434Z,5.87
2022-10-29T12:28:19.008Z,5.60
2022-10-29T12:30:55.619Z,6.00
2022-10-29T12:33:25.937Z,6.23
2022-10-29T12:35:56.829Z,5.30
2022-10-29T12:38:39.373Z,6.17
2022-10-29T12:41:11.446Z,5.90
2022-10-29T12:43:40.501Z,6.50
2022-10-29T12:46:20.753Z,6.47
2022-10-29T12:48:57.374Z,6.87
2022-10-29T12:51:30.047Z,6.97
2022-10-29T12:54:15.370Z,6.13
2022-10-29T12:56:47.763Z,6.83
2022-10-29T12:59:34.220Z,6.90
2022-10-29T13:02:30.091Z,6.90
2022-10-29T13:05:33.706Z,6.47
2022-10-29T13:08:12.398Z,6.87
2022-10-29T13:10:48.702Z,7.30
2022-10-29T13:13:54.938Z,7.50
2022-10-29T13:16:27.673Z,6.47
2022-10-29T13:19:18.159Z,7.70
2022-10-29T13:22:03.092Z,6.57
2022-10-29T13:24:31.368Z,6.63
2022-10-29T13:27:13.067Z,7.63
2022-10-29T13:29:45.390Z,6.73
2022-10-29T13:32:33.877Z,8.20
2022-10-29T13:35:02.439Z,7.50
2022-10-29T13:37:53.944Z,8.20
2022-10-29T13:41:02.408Z,7.70
2022-10-29T13:43:31.504Z,7.43
2022-10-29T13:46:19.673Z,7.60
2022-10-29T13:48:49.073Z,6.70
2022-10-29T13:51:21.425Z,6.30
2022-10-29T13:53:53.440Z,6.50
2022-10-29T13:56:26.488Z,6.77
2022-10-29T13:58:54.727Z,6.90
2022-10-29T14:01:22.883Z,6.97
2022-10-29T14:04:00.193Z,6.90
2022-10-29T14:06:32.021Z,6.50
2022-10-29T14:09:11.065Z,7.47
2022-10-29T14:11:41.157Z,6.90
2022-10-29T14:14:21.866Z,7.60
2022-10-29T14:16:49.486Z,6.80
2022-10-29T14:19:22.140Z,6.47
2022-10-29T14:21:49.692Z,7.10
2022-10-29T14:24:18.062Z,6.80
2022-10-29T14:26:46.381Z,6.17
2022-10-29T14:29:15.097Z,6.50
2022-10-29T14:31:42.636Z,6.60
2022-10-29T14:34:24.865Z,6.53
2022-10-29T14:36:53.806Z,6.97
2022-10-29T14:39:28.781Z,6.73
2022-10-29T14:42:05.499Z,8.00
2022-10-29T14:44:34.178Z,6.17
2022-10-29T14:47:05.339Z,6.37
2022-10-29T14:49:35.867Z,6.60
2022-10-29T14:52:05.132Z,6.83
2022-10-29T14:54:36.112Z,6.40
2022-10-29T14:57:05.814Z,6.40
2022-10-29T14:59:34.671Z,7.10
2022-10-29T15:02:24.081Z,7.20
2022-10-29T15:04:57.460Z,7.40
2022-10-29T15:07:30.782Z,6.30
2022-10-29T15:10:19.149Z,6.30
2022-10-29T15:12:47.342Z,6.80
2022-10-29T15:15:24.252Z,7.07
2022-10-29T15:17:54.276Z,7.47
2022-10-29T15:20:24.592Z,6.93
2022-10-29T15:22:56.548Z,7.07
2022-10-29T15:25:25.578Z,7.07
2022-10-29T15:27:53.609Z,7.50
2022-10-29T15:32:59.647Z,8.17
2022-10-29T15:35:28.956Z,8.00
2022-10-29T15:37:57.078Z,7.57
2022-10-29T15:40:26.235Z,8.40
2022-10-29T15:42:54.824Z,8.33
2022-10-29T15:45:26.724Z,7.97
2022-10-29T15:47:57.968Z,8.20
2022-10-29T15:50:29.559Z,8.10
2022-10-29T15:52:58.523Z,7.90
2022-10-29T15:55:28.410Z,8.47
2022-10-29T15:58:01.028Z,8.47
2022-10-29T16:00:29.085Z,8.80
2022-10-29T16:02:59.526Z,8.23
2022-10-29T16:05:27.266Z,8.33
2022-10-29T16:07:56.321Z,8.27
2022-10-29T16:10:23.834Z,9.03
2022-10-29T16:12:51.451Z,9.07
2022-10-29T16:15:20.685Z,9.67
2022-10-29T16:17:48.376Z,9.37
2022-10-29T16:20:17.703Z,8.53
2022-10-29T16:22:45.445Z,8.73
2022-10-29T16:25:24.069Z,8.90
2022-10-29T16:27:51.921Z,8.60
2022-10-29T16:30:20.282Z,10.03
2022-10-29T16:32:49.791Z,9.10
2022-10-29T16:35:20.371Z,10.17
2022-10-29T16:37:48.191Z,11.87
2022-10-29T16:40:15.818Z,11.37
2022-10-29T16:42:45.203Z,11.37
2022-10-29T16:45:16.529Z,10.00
2022-10-29T16:47:44.419Z,10.17
2022-10-29T16:50:16.785Z,10.87
2022-10-29T16:52:44.525Z,10.43
2022-10-29T16:55:12.449Z,10.07
2022-10-29T16:57:40.100Z,9.53
2022-10-29T17:00:11.438Z,10.67
2022-10-29T17:02:40.499Z,19.30
2022-10-29T17:05:08.787Z,17.13
2022-10-29T17:07:36.325Z,17.53
2022-10-29T17:10:04.450Z,19.57
2022-10-29T17:12:32.194Z,19.57
2022-10-29T17:14:59.724Z,19.37
2022-10-29T17:17:30.772Z,16.50
2022-10-29T17:19:58.706Z,16.20
2022-10-29T17:22:26.259Z,15.63
2022-10-29T17:24:53.816Z,15.33
2022-10-29T17:27:21.363Z,16.10
2022-10-29T17:29:49.277Z,18.40
2022-10-29T17:32:17.645Z,15.97
2022-10-29T17:34:46.531Z,20.30
2022-10-29T17:37:14.066Z,13.27
2022-10-29T17:39:41.724Z,13.10
2022-10-29T17:42:09.371Z,12.03
2022-10-29T17:44:36.924Z,10.77
2022-10-29T17:47:04.477Z,11.43
2022-10-29T17:49:32.041Z,11.07
2022-10-29T17:52:02.084Z,10.40
2022-10-29T17:54:29.648Z,11.37
2022-10-29T17:56:57.210Z,11.20
2022-10-29T17:59:24.810Z,10.00
2022-10-29T18:01:52.545Z,11.47
2022-10-29T18:04:20.235Z,11.00
2022-10-29T18:06:47.752Z,11.33
2022-10-29T18:09:20.203Z,11.27
2022-10-29T18:11:50.038Z,11.53
2022-10-29T18:14:17.607Z,10.67
2022-10-29T18:16:45.688Z,11.07
2022-10-29T18:19:13.249Z,11.03
2022-10-29T18:21:40.847Z,11.33
2022-10-29T18:24:09.008Z,12.10
2022-10-29T18:26:38.014Z,10.83
2022-10-29T18:29:07.601Z,10.53
2022-10-29T18:31:35.947Z,11.53
2022-10-29T18:34:07.067Z,11.00
2022-10-29T18:36:35.943Z,9.97
2022-10-29T18:39:05.405Z,10.60
2022-10-29T18:41:33.382Z,11.40
2022-10-29T18:44:02.559Z,10.10
2022-10-29T18:46:30.160Z,11.03
2022-10-29T18:48:57.711Z,10.43
2022-10-29T18:51:31.028Z,9.57
2022-10-29T18:53:59.397Z,10.27
2022-10-29T18:56:28.251Z,10.77
2022-10-29T18:58:56.895Z,10.43
2022-10-29T19:01:27.379Z,9.63
2022-10-29T19:03:56.477Z,9.63
2022-10-29T19:06:25.317Z,9.83
2022-10-29T19:08:53.213Z,10.40
2022-10-29T19:11:23.333Z,11.60
2022-10-29T19:13:51.380Z,10.17
2022-10-29T19:16:19.543Z,9.63
2022-10-29T19:18:48.787Z,10.03
2022-10-29T19:21:18.200Z,9.43
2022-10-29T19:23:46.650Z,9.40
2022-10-29T19:26:16.036Z,9.60
2022-10-29T19:28:44.512Z,10.40
2022-10-29T19:31:13.760Z,11.40
2022-10-29T19:33:41.517Z,10.87
2022-10-29T19:36:11.124Z,9.37
2022-10-29T19:38:38.704Z,9.10
2022-10-29T19:41:06.554Z,10.07
2022-10-29T19:43:34.518Z,9.97
2022-10-29T19:46:02.361Z,10.13
2022-10-29T19:48:29.905Z,9.97
2022-10-29T19:50:57.481Z,9.90
2022-10-29T19:53:27.278Z,10.13
2022-10-29T19:55:54.964Z,10.67
2022-10-29T19:58:23.932Z,11.20
2022-10-29T20:00:54.627Z,10.57
2022-10-29T20:03:22.579Z,11.03
2022-10-29T20:05:50.255Z,9.90
2022-10-29T20:08:17.955Z,10.70
2022-10-29T20:10:54.949Z,9.60
2022-10-29T20:13:22.575Z,10.23
2022-10-29T20:15:50.537Z,10.37
2022-10-29T20:18:18.985Z,11.63
2022-10-29T20:20:46.516Z,9.93
2022-10-29T20:23:14.059Z,9.43
2022-10-29T20:25:41.665Z,10.90
2022-10-29T20:28:11.560Z,9.60
2022-10-29T20:30:39.105Z,10.00
2022-10-29T20:33:06.647Z,9.80
2022-10-29T20:35:34.222Z,9.80
2022-10-29T20:38:01.931Z,10.07
2022-10-29T20:40:29.629Z,9.97
2022-10-29T20:42:57.345Z,10.17
2022-10-29T20:45:26.321Z,9.60
2022-10-29T20:47:54.049Z,10.23
2022-10-29T20:50:21.694Z,10.30
2022-10-29T20:52:50.459Z,10.13
2022-10-29T20:55:18.045Z,10.43
2022-10-29T20:57:45.641Z,10.30
2022-10-29T21:00:13.985Z,10.63
2022-10-29T21:02:42.992Z,10.63
2022-10-29T21:05:10.642Z,10.80
2022-10-29T21:07:40.026Z,11.27
2022-10-29T21:10:09.135Z,11.43
2022-10-29T21:12:36.699Z,10.83
2022-10-29T21:15:04.663Z,10.20
2022-10-29T21:17:33.951Z,9.97
2022-10-29T21:20:02.817Z,9.93
2022-10-29T21:22:30.356Z,9.87
2022-10-29T21:24:57.925Z,11.17
2022-10-29T21:27:25.463Z,10.50
2022-10-29T21:29:53.112Z,10.57
2022-10-29T21:32:20.689Z,10.63
2022-10-29T21:34:48.352Z,10.53
2022-10-29T21:37:17.216Z,10.60
2022-10-29T21:39:44.833Z,9.90
2022-10-29T21:42:12.457Z,10.20
2022-10-29T21:44:40.026Z,9.73
2022-10-29T21:47:07.581Z,10.30
2022-10-29T21:49:35.181Z,9.90
2022-10-29T21:52:02.760Z,10.30
2022-10-29T21:54:31.690Z,10.47
2022-10-29T21:56:59.269Z,10.43
2022-10-29T21:59:26.798Z,9.87
2022-10-29T22:01:54.421Z,9.70
2022-10-29T22:04:22.007Z,10.07
2022-10-29T22:06:49.551Z,10.43
2022-10-29T22:09:17.212Z,10.23
2022-10-29T22:11:46.136Z,10.90
2022-10-29T22:14:13.665Z,11.00
2022-10-29T22:16:41.189Z,10.13
2022-10-29T22:19:08.992Z,11.77
2022-10-29T22:21:36.531Z,10.30
2022-10-29T22:24:04.471Z,10.40
2022-10-29T22:26:32.070Z,9.93
2022-10-29T22:29:01.277Z,10.00
2022-10-29T22:31:28.842Z,10.70
2022-10-29T22:33:56.637Z,11.87
2022-10-29T22:36:26.040Z,11.67
2022-10-29T22:38:54.626Z,10.47
2022-10-29T22:41:22.159Z,11.10
2022-10-29T22:43:49.742Z,11.87
2022-10-29T22:46:19.661Z,11.67
2022-10-29T22:48:47.474Z,11.27
2022-10-29T22:51:17.502Z,10.47
2022-10-29T22:53:45.941Z,10.30
2022-10-29T22:56:14.816Z,10.47
2022-10-29T22:58:42.593Z,10.80
2022-10-29T23:01:11.530Z,11.23
2022-10-29T23:03:41.619Z,11.57
2022-10-29T23:06:11.248Z,11.70
2022-10-29T23:08:39.178Z,12.07
2022-10-29T23:11:07.370Z,11.27
2022-10-29T23:13:35.454Z,12.40
2022-10-29T23:16:02.998Z,12.27
2022-10-29T23:18:32.762Z,11.40
2022-10-29T23:21:02.673Z,12.23
2022-10-29T23:23:30.871Z,10.97
2022-10-29T23:26:01.484Z,11.37
2022-10-29T23:28:29.180Z,11.20
2022-10-29T23:30:57.653Z,11.83
2022-10-29T23:33:25.710Z,11.97
2022-10-29T23:35:53.604Z,12.17
2022-10-29T23:38:22.743Z,11.47
2022-10-29T23:40:50.322Z,10.80
2022-10-29T23:43:18.052Z,10.77
2022-10-29T23:45:45.710Z,10.53
2022-10-29T23:48:13.305Z,11.40
2022-10-29T23:50:41.277Z,11.03
2022-10-29T23:53:08.863Z,11.00
2022-10-29T23:55:37.817Z,11.87
2022-10-29T23:58:05.679Z,11.17
